DAE225 WIII-VDPP
Flight info
| Callsign | DAE225 |
|---|---|
| Flight time | N/A |
| Altitude | 34000 |
| Route | DOLTA G579 SJ B469 PU/N0467F350 N891 ENREP/N0463F360 M753 IPRIX/K0857F360 M753 BITOD/K0865F350 M755 KISAN NARET3A |
| Aircraft | B752/M-SDE2E3FGHIJ3J4J7RWXY/LB1 |
Departure
| Time | N/A |
|---|---|
| Airport | Soekarno-Hatta International Airport (WIII) |
Arrival
| Time | 2026-04-22 09:47 |
|---|---|
| Airport | Phnom Penh International Airport (VDPP) |
| Time | Latitude | Longitude | Altitude | Speed | Heading |
|---|---|---|---|---|---|
| 2026-04-22 08:45 | 6.12567 | 104.17854 | 35804 ft | 417 kts | 358° |
| 2026-04-22 08:45 | 6.18411 | 104.17544 | 35803 ft | 417 kts | 358° |
| 2026-04-22 08:46 | 6.24239 | 104.17233 | 35803 ft | 417 kts | 358° |
| 2026-04-22 08:46 | 6.30049 | 104.16924 | 35803 ft | 417 kts | 358° |
| 2026-04-22 08:47 | 6.35853 | 104.16615 | 35803 ft | 416 kts | 358° |
| 2026-04-22 08:47 | 6.41680 | 104.16305 | 35802 ft | 416 kts | 358° |
| 2026-04-22 08:48 | 6.47478 | 104.15996 | 35802 ft | 416 kts | 359° |
| 2026-04-22 08:48 | 6.53251 | 104.15689 | 35802 ft | 416 kts | 359° |
| 2026-04-22 08:49 | 6.59060 | 104.15379 | 35801 ft | 415 kts | 359° |
| 2026-04-22 08:49 | 6.64844 | 104.15071 | 35802 ft | 415 kts | 359° |
| 2026-04-22 08:50 | 6.70634 | 104.14762 | 35795 ft | 415 kts | 359° |
| 2026-04-22 08:50 | 6.76404 | 104.14455 | 35786 ft | 415 kts | 359° |
| 2026-04-22 08:51 | 6.82181 | 104.14146 | 35784 ft | 415 kts | 359° |
| 2026-04-22 08:51 | 6.87972 | 104.13837 | 35784 ft | 414 kts | 359° |
| 2026-04-22 08:52 | 6.93733 | 104.13531 | 35780 ft | 414 kts | 359° |
| 2026-04-22 08:52 | 6.99531 | 104.13221 | 35780 ft | 414 kts | 359° |
| 2026-04-22 08:53 | 7.05284 | 104.12916 | 35779 ft | 413 kts | 359° |
| 2026-04-22 08:53 | 7.11058 | 104.12611 | 35782 ft | 413 kts | 359° |
| 2026-04-22 08:54 | 7.16837 | 104.12303 | 35784 ft | 413 kts | 359° |
| 2026-04-22 08:54 | 7.22581 | 104.11999 | 35784 ft | 413 kts | 360° |
| 2026-04-22 08:55 | 7.28117 | 104.12297 | 35799 ft | 408 kts | 11° |
| 2026-04-22 08:55 | 7.31819 | 104.12890 | 35783 ft | 408 kts | 11° |
| 2026-04-22 08:56 | 7.37447 | 104.13804 | 35788 ft | 408 kts | 11° |
| 2026-04-22 08:56 | 7.43059 | 104.14732 | 35793 ft | 408 kts | 12° |
| 2026-04-22 08:57 | 7.48690 | 104.15668 | 35801 ft | 407 kts | 11° |
| 2026-04-22 08:57 | 7.54295 | 104.16604 | 35803 ft | 407 kts | 11° |
| 2026-04-22 08:58 | 7.59907 | 104.17541 | 35801 ft | 407 kts | 11° |
| 2026-04-22 08:58 | 7.65543 | 104.18481 | 35803 ft | 407 kts | 11° |
| 2026-04-22 08:59 | 7.71123 | 104.19414 | 35800 ft | 407 kts | 11° |
| 2026-04-22 08:59 | 7.76758 | 104.20355 | 35799 ft | 407 kts | 11° |
| 2026-04-22 09:00 | 7.82359 | 104.21291 | 35804 ft | 407 kts | 11° |
| 2026-04-22 09:00 | 7.87985 | 104.22232 | 35800 ft | 407 kts | 12° |
| 2026-04-22 09:01 | 7.93586 | 104.23169 | 35801 ft | 407 kts | 11° |
| 2026-04-22 09:01 | 7.99187 | 104.24105 | 35800 ft | 407 kts | 12° |
| 2026-04-22 09:02 | 8.04795 | 104.25044 | 35799 ft | 407 kts | 11° |
| 2026-04-22 09:02 | 8.10414 | 104.25985 | 35798 ft | 407 kts | 11° |
| 2026-04-22 09:03 | 8.16025 | 104.26924 | 35805 ft | 407 kts | 11° |
| 2026-04-22 09:03 | 8.21646 | 104.27865 | 35795 ft | 407 kts | 11° |
| 2026-04-22 09:04 | 8.27247 | 104.28803 | 35801 ft | 407 kts | 11° |
| 2026-04-22 09:04 | 8.32836 | 104.29740 | 35802 ft | 407 kts | 11° |
| 2026-04-22 09:05 | 8.38475 | 104.30685 | 35801 ft | 408 kts | 11° |
| 2026-04-22 09:05 | 8.44094 | 104.31627 | 35800 ft | 408 kts | 11° |
| 2026-04-22 09:06 | 8.49688 | 104.32565 | 35800 ft | 408 kts | 12° |
| 2026-04-22 09:06 | 8.55322 | 104.33511 | 35796 ft | 408 kts | 11° |
| 2026-04-22 09:07 | 8.60963 | 104.34457 | 35791 ft | 408 kts | 12° |
| 2026-04-22 09:07 | 8.66571 | 104.35399 | 35778 ft | 409 kts | 12° |
| 2026-04-22 09:08 | 8.72185 | 104.36341 | 35780 ft | 409 kts | 12° |
| 2026-04-22 09:08 | 8.77837 | 104.37290 | 35783 ft | 409 kts | 12° |
| 2026-04-22 09:09 | 8.83483 | 104.38239 | 35781 ft | 409 kts | 12° |
| 2026-04-22 09:09 | 8.89119 | 104.39187 | 35776 ft | 409 kts | 12° |
| 2026-04-22 09:10 | 8.94720 | 104.40128 | 35779 ft | 409 kts | 12° |
| 2026-04-22 09:10 | 9.00367 | 104.41077 | 35783 ft | 409 kts | 12° |
| 2026-04-22 09:11 | 9.05994 | 104.42024 | 35786 ft | 409 kts | 12° |
| 2026-04-22 09:11 | 9.11584 | 104.42966 | 35787 ft | 408 kts | 12° |
| 2026-04-22 09:11 | 9.14426 | 104.43444 | 35558 ft | 415 kts | 12° |
| 2026-04-22 09:12 | 9.17340 | 104.43935 | 35022 ft | 426 kts | 12° |
| 2026-04-22 09:12 | 9.20278 | 104.44430 | 34487 ft | 434 kts | 12° |
| 2026-04-22 09:12 | 9.23268 | 104.44933 | 33932 ft | 436 kts | 12° |
| 2026-04-22 09:12 | 9.26271 | 104.45438 | 33365 ft | 435 kts | 12° |
| 2026-04-22 09:13 | 9.29280 | 104.45944 | 32793 ft | 434 kts | 12° |
| 2026-04-22 09:13 | 9.32259 | 104.46446 | 32255 ft | 434 kts | 12° |
| 2026-04-22 09:13 | 9.35248 | 104.46950 | 31733 ft | 436 kts | 12° |
| 2026-04-22 09:13 | 9.38284 | 104.47462 | 31208 ft | 438 kts | 12° |
| 2026-04-22 09:14 | 9.41295 | 104.47970 | 30689 ft | 441 kts | 12° |
| 2026-04-22 09:14 | 9.44337 | 104.48483 | 30172 ft | 443 kts | 12° |
| 2026-04-22 09:14 | 9.47383 | 104.48996 | 29657 ft | 444 kts | 12° |
| 2026-04-22 09:14 | 9.50461 | 104.49515 | 29140 ft | 445 kts | 12° |
| 2026-04-22 09:15 | 9.53502 | 104.50028 | 28631 ft | 444 kts | 12° |
| 2026-04-22 09:15 | 9.56528 | 104.50539 | 28141 ft | 441 kts | 12° |
| 2026-04-22 09:15 | 9.59570 | 104.51051 | 27649 ft | 438 kts | 12° |
| 2026-04-22 09:15 | 9.62561 | 104.51556 | 27167 ft | 435 kts | 12° |
| 2026-04-22 09:16 | 9.65554 | 104.52062 | 26685 ft | 433 kts | 11° |
| 2026-04-22 09:16 | 9.68535 | 104.52565 | 26207 ft | 431 kts | 11° |
| 2026-04-22 09:16 | 9.71508 | 104.53068 | 25727 ft | 429 kts | 11° |
| 2026-04-22 09:16 | 9.74442 | 104.53564 | 25256 ft | 427 kts | 11° |
| 2026-04-22 09:17 | 9.77386 | 104.54061 | 24783 ft | 425 kts | 11° |
| 2026-04-22 09:17 | 9.80304 | 104.54554 | 24314 ft | 424 kts | 11° |
| 2026-04-22 09:17 | 9.83216 | 104.55046 | 23844 ft | 422 kts | 11° |
| 2026-04-22 09:17 | 9.86099 | 104.55534 | 23380 ft | 420 kts | 11° |
| 2026-04-22 09:18 | 9.88998 | 104.56024 | 22912 ft | 418 kts | 11° |
| 2026-04-22 09:18 | 9.91649 | 104.56472 | 22487 ft | 416 kts | 11° |
| 2026-04-22 09:18 | 9.94518 | 104.56958 | 22027 ft | 414 kts | 11° |
| 2026-04-22 09:18 | 9.97370 | 104.57440 | 21561 ft | 412 kts | 11° |
| 2026-04-22 09:19 | 10.00192 | 104.57918 | 21096 ft | 409 kts | 11° |
| 2026-04-22 09:19 | 10.02992 | 104.58392 | 20636 ft | 406 kts | 11° |
| 2026-04-22 09:19 | 10.05794 | 104.58866 | 20184 ft | 403 kts | 11° |
| 2026-04-22 09:19 | 10.08552 | 104.59354 | 19742 ft | 399 kts | 11° |
| 2026-04-22 09:20 | 10.11277 | 104.59844 | 19311 ft | 396 kts | 11° |
| 2026-04-22 09:20 | 10.14018 | 104.60336 | 18883 ft | 395 kts | 11° |
| 2026-04-22 09:20 | 10.16726 | 104.60822 | 18446 ft | 394 kts | 11° |
| 2026-04-22 09:20 | 10.19437 | 104.61308 | 18009 ft | 393 kts | 11° |
| 2026-04-22 09:21 | 10.22148 | 104.61795 | 17588 ft | 391 kts | 11° |
| 2026-04-22 09:21 | 10.24838 | 104.62277 | 17146 ft | 388 kts | 10° |
| 2026-04-22 09:21 | 10.27496 | 104.62754 | 16713 ft | 386 kts | 10° |
| 2026-04-22 09:21 | 10.30147 | 104.63229 | 16280 ft | 383 kts | 10° |
| 2026-04-22 09:22 | 10.32764 | 104.63699 | 15827 ft | 380 kts | 10° |
| 2026-04-22 09:22 | 10.35368 | 104.64166 | 15398 ft | 376 kts | 10° |
| 2026-04-22 09:22 | 10.37915 | 104.64624 | 14999 ft | 373 kts | 11° |
| 2026-04-22 09:22 | 10.40490 | 104.65086 | 14565 ft | 370 kts | 11° |
| 2026-04-22 09:23 | 10.43010 | 104.65540 | 14153 ft | 367 kts | 11° |
| 2026-04-22 09:23 | 10.45473 | 104.65982 | 13739 ft | 365 kts | 11° |
| 2026-04-22 09:23 | 10.48027 | 104.66441 | 13304 ft | 362 kts | 11° |
| 2026-04-22 09:23 | 10.50495 | 104.66884 | 12889 ft | 358 kts | 11° |
| 2026-04-22 09:24 | 10.52959 | 104.67327 | 12497 ft | 356 kts | 11° |
| 2026-04-22 09:24 | 10.55381 | 104.67747 | 12090 ft | 354 kts | 10° |
| 2026-04-22 09:24 | 10.57840 | 104.68157 | 11748 ft | 350 kts | 10° |
| 2026-04-22 09:24 | 10.60238 | 104.68560 | 11377 ft | 349 kts | 10° |
| 2026-04-22 09:25 | 10.62635 | 104.68962 | 11012 ft | 349 kts | 11° |
| 2026-04-22 09:25 | 10.65030 | 104.69364 | 10673 ft | 348 kts | 11° |
| 2026-04-22 09:25 | 10.67433 | 104.69767 | 10280 ft | 347 kts | 11° |
| 2026-04-22 09:25 | 10.69822 | 104.70168 | 9994 ft | 340 kts | 11° |
| 2026-04-22 09:26 | 10.72094 | 104.70548 | 9979 ft | 323 kts | 11° |
| 2026-04-22 09:26 | 10.74282 | 104.70916 | 9966 ft | 308 kts | 11° |
| 2026-04-22 09:26 | 10.76353 | 104.71264 | 9950 ft | 293 kts | 11° |
| 2026-04-22 09:26 | 10.78330 | 104.71596 | 9798 ft | 285 kts | 11° |
| 2026-04-22 09:27 | 10.80263 | 104.71921 | 9629 ft | 278 kts | 11° |
| 2026-04-22 09:27 | 10.82177 | 104.72244 | 9431 ft | 277 kts | 11° |
| 2026-04-22 09:27 | 10.84108 | 104.72568 | 9238 ft | 280 kts | 11° |
| 2026-04-22 09:27 | 10.86054 | 104.72896 | 9034 ft | 283 kts | 11° |
| 2026-04-22 09:28 | 10.87960 | 104.73328 | 8831 ft | 279 kts | 25° |
| 2026-04-22 09:28 | 10.89619 | 104.74371 | 8725 ft | 273 kts | 38° |
| 2026-04-22 09:28 | 10.91151 | 104.75497 | 8634 ft | 275 kts | 37° |
| 2026-04-22 09:28 | 10.92717 | 104.76651 | 8542 ft | 277 kts | 38° |
| 2026-04-22 09:29 | 10.94278 | 104.77819 | 8431 ft | 277 kts | 38° |
| 2026-04-22 09:29 | 10.95839 | 104.78992 | 8324 ft | 276 kts | 38° |
| 2026-04-22 09:29 | 10.97396 | 104.80169 | 8217 ft | 276 kts | 38° |
| 2026-04-22 09:29 | 10.98939 | 104.81338 | 8117 ft | 276 kts | 38° |
| 2026-04-22 09:30 | 11.00474 | 104.82501 | 8026 ft | 276 kts | 38° |
| 2026-04-22 09:30 | 11.02022 | 104.83676 | 7922 ft | 275 kts | 38° |
| 2026-04-22 09:30 | 11.03558 | 104.84841 | 7818 ft | 274 kts | 38° |
| 2026-04-22 09:30 | 11.05082 | 104.85998 | 7737 ft | 274 kts | 38° |
| 2026-04-22 09:31 | 11.06620 | 104.87167 | 7655 ft | 275 kts | 38° |
| 2026-04-22 09:31 | 11.08167 | 104.88342 | 7579 ft | 276 kts | 38° |
| 2026-04-22 09:31 | 11.09719 | 104.89522 | 7494 ft | 276 kts | 38° |
| 2026-04-22 09:31 | 11.11259 | 104.90692 | 7409 ft | 276 kts | 38° |
| 2026-04-22 09:32 | 11.12806 | 104.91868 | 7329 ft | 276 kts | 38° |
| 2026-04-22 09:32 | 11.14348 | 104.93040 | 7250 ft | 275 kts | 38° |
| 2026-04-22 09:32 | 11.15885 | 104.94207 | 7163 ft | 274 kts | 38° |
| 2026-04-22 09:32 | 11.17400 | 104.95360 | 7082 ft | 274 kts | 38° |
| 2026-04-22 09:33 | 11.18939 | 104.96529 | 6999 ft | 274 kts | 38° |
| 2026-04-22 09:33 | 11.20481 | 104.97702 | 6907 ft | 273 kts | 38° |
| 2026-04-22 09:33 | 11.22005 | 104.98862 | 6825 ft | 274 kts | 38° |
| 2026-04-22 09:33 | 11.23543 | 105.00031 | 6730 ft | 273 kts | 38° |
| 2026-04-22 09:34 | 11.25061 | 105.01187 | 6648 ft | 273 kts | 38° |
| 2026-04-22 09:34 | 11.26590 | 105.02351 | 6566 ft | 273 kts | 38° |
| 2026-04-22 09:34 | 11.28111 | 105.03507 | 6476 ft | 273 kts | 38° |
| 2026-04-22 09:35 | 11.31199 | 105.05859 | 6046 ft | 276 kts | 38° |
| 2026-04-22 09:35 | 11.32727 | 105.07021 | 5876 ft | 270 kts | 38° |
| 2026-04-22 09:35 | 11.34374 | 105.07874 | 5891 ft | 266 kts | 11° |
| 2026-04-22 09:35 | 11.36277 | 105.07896 | 5822 ft | 282 kts | 352° |
| 2026-04-22 09:36 | 11.38261 | 105.07571 | 5526 ft | 287 kts | 351° |
| 2026-04-22 09:36 | 11.40239 | 105.07231 | 5199 ft | 286 kts | 351° |
| 2026-04-22 09:36 | 11.42194 | 105.06873 | 4871 ft | 285 kts | 350° |
| 2026-04-22 09:36 | 11.44157 | 105.06500 | 4540 ft | 284 kts | 350° |
| 2026-04-22 09:37 | 11.46091 | 105.06127 | 4215 ft | 283 kts | 350° |
| 2026-04-22 09:37 | 11.48058 | 105.05743 | 3870 ft | 282 kts | 349° |
| 2026-04-22 09:37 | 11.49980 | 105.05367 | 3520 ft | 282 kts | 349° |
| 2026-04-22 09:37 | 11.51935 | 105.04983 | 3162 ft | 282 kts | 349° |
| 2026-04-22 09:38 | 11.53871 | 105.04601 | 2816 ft | 282 kts | 349° |
| 2026-04-22 09:38 | 11.55764 | 105.04228 | 2672 ft | 274 kts | 349° |
| 2026-04-22 09:38 | 11.57657 | 105.03855 | 2337 ft | 273 kts | 349° |
| 2026-04-22 09:38 | 11.59474 | 105.03495 | 2271 ft | 261 kts | 349° |
| 2026-04-22 09:39 | 11.61119 | 105.02811 | 2285 ft | 244 kts | 321° |
| 2026-04-22 09:39 | 11.62369 | 105.01733 | 2267 ft | 230 kts | 328° |
| 2026-04-22 09:39 | 11.63820 | 105.01241 | 2308 ft | 216 kts | 5° |
| 2026-04-22 09:39 | 11.65272 | 105.01689 | 2290 ft | 230 kts | 34° |
| 2026-04-22 09:40 | 11.66483 | 105.02861 | 2331 ft | 248 kts | 55° |
| 2026-04-22 09:40 | 11.67506 | 105.04351 | 2289 ft | 263 kts | 56° |
| 2026-04-22 09:40 | 11.68811 | 105.05646 | 2287 ft | 262 kts | 29° |
| 2026-04-22 09:40 | 11.70580 | 105.06143 | 2309 ft | 266 kts | 359° |
| 2026-04-22 09:41 | 11.72357 | 105.05711 | 2298 ft | 260 kts | 329° |
| 2026-04-22 09:41 | 11.73624 | 105.04495 | 2288 ft | 243 kts | 295° |
| 2026-04-22 09:41 | 11.73887 | 105.02905 | 2303 ft | 220 kts | 251° |
| 2026-04-22 09:41 | 11.73084 | 105.01713 | 2329 ft | 195 kts | 207° |
| 2026-04-22 09:42 | 11.71903 | 105.01057 | 2305 ft | 194 kts | 209° |
| 2026-04-22 09:42 | 11.70769 | 105.00284 | 2298 ft | 195 kts | 214° |
| 2026-04-22 09:42 | 11.69695 | 104.99453 | 2283 ft | 195 kts | 216° |
| 2026-04-22 09:42 | 11.68642 | 104.98559 | 2305 ft | 193 kts | 219° |
| 2026-04-22 09:43 | 11.67632 | 104.97643 | 2294 ft | 195 kts | 220° |
| 2026-04-22 09:43 | 11.66651 | 104.96711 | 2281 ft | 191 kts | 221° |
| 2026-04-22 09:43 | 11.65729 | 104.95805 | 2252 ft | 175 kts | 222° |
| 2026-04-22 09:43 | 11.64878 | 104.94952 | 2269 ft | 168 kts | 222° |
| 2026-04-22 09:44 | 11.64019 | 104.94084 | 2265 ft | 177 kts | 223° |
| 2026-04-22 09:44 | 11.63148 | 104.93194 | 2056 ft | 176 kts | 223° |
| 2026-04-22 09:44 | 11.62303 | 104.92323 | 1852 ft | 170 kts | 223° |
| 2026-04-22 09:44 | 11.61475 | 104.91467 | 1630 ft | 166 kts | 223° |
| 2026-04-22 09:45 | 11.60682 | 104.90646 | 1430 ft | 156 kts | 223° |
| 2026-04-22 09:45 | 11.59931 | 104.89868 | 1207 ft | 150 kts | 223° |
| 2026-04-22 09:45 | 11.59209 | 104.89122 | 1025 ft | 147 kts | 222° |
| 2026-04-22 09:45 | 11.58480 | 104.88362 | 859 ft | 149 kts | 224° |
| 2026-04-22 09:46 | 11.57763 | 104.87594 | 726 ft | 152 kts | 222° |
| 2026-04-22 09:46 | 11.56995 | 104.86822 | 502 ft | 153 kts | 222° |
| 2026-04-22 09:46 | 11.56264 | 104.86076 | 294 ft | 148 kts | 223° |
| 2026-04-22 09:46 | 11.55542 | 104.85335 | 81 ft | 144 kts | 223° |
| 2026-04-22 09:47 | 11.54867 | 104.84634 | 50 ft | 118 kts | 224° |
| 2026-04-22 09:47 | 11.54413 | 104.84167 | 50 ft | 69 kts | 228° |
| 2026-04-22 09:47 | 11.54235 | 104.83975 | 50 ft | 22 kts | 226° |
| 2026-04-22 09:47 | 11.54143 | 104.83879 | 50 ft | 15 kts | 234° |
| 2026-04-22 09:48 | 11.54141 | 104.83810 | 50 ft | 8 kts | 304° |
| 2026-04-22 09:48 | 11.54176 | 104.83772 | 50 ft | 6 kts | 315° |
| 2026-04-22 09:48 | 11.54230 | 104.83744 | 50 ft | 11 kts | 6° |
| 2026-04-22 09:48 | 11.54318 | 104.83813 | 50 ft | 19 kts | 46° |
| 2026-04-22 09:49 | 11.54381 | 104.83880 | 50 ft | 19 kts | 46° |
| 2026-04-22 09:49 | 11.54497 | 104.84000 | 50 ft | 16 kts | 46° |
| 2026-04-22 09:49 | 11.54574 | 104.84079 | 50 ft | 14 kts | 46° |
| 2026-04-22 09:49 | 11.54639 | 104.84148 | 50 ft | 12 kts | 45° |
| 2026-04-22 09:50 | 11.54696 | 104.84206 | 50 ft | 10 kts | 46° |
| 2026-04-22 09:50 | 11.54752 | 104.84265 | 50 ft | 13 kts | 41° |
| 2026-04-22 09:50 | 11.54819 | 104.84262 | 50 ft | 8 kts | 317° |
| 2026-04-22 09:50 | 11.54855 | 104.84226 | 50 ft | 6 kts | 315° |
| 2026-04-22 09:51 | 11.54877 | 104.84204 | 50 ft | 2 kts | 315° |
| 2026-04-22 09:51 | 11.54888 | 104.84193 | 50 ft | 1 kts | 315° |
| 2026-04-22 09:51 | 11.54889 | 104.84193 | 50 ft | 0 kts | 315° |